sensor_id;sensor_type;location;lat;lon;timestamp;temperature;humidity
18934;DHT22;9599;53.706;10.384;2023-08-30T00:02:11;14.10;99.90
18934;DHT22;9599;53.706;10.384;2023-08-30T00:04:39;14.10;99.90
18934;DHT22;9599;53.706;10.384;2023-08-30T00:07:07;14.00;99.90
18934;DHT22;9599;53.706;10.384;2023-08-30T00:09:36;14.00;99.90
18934;DHT22;9599;53.706;10.384;2023-08-30T00:12:05;14.00;99.90
18934;DHT22;9599;53.706;10.384;2023-08-30T00:14:33;14.00;99.90
18934;DHT22;9599;53.706;10.384;2023-08-30T00:17:01;14.00;99.90
18934;DHT22;9599;53.706;10.384;2023-08-30T00:19:29;14.00;99.90
18934;DHT22;9599;53.706;10.384;2023-08-30T00:21:58;14.00;99.90
18934;DHT22;9599;53.706;10.384;2023-08-30T00:24:26;13.90;99.90
18934;DHT22;9599;53.706;10.384;2023-08-30T00:26:57;13.90;99.90
18934;DHT22;9599;53.706;10.384;2023-08-30T00:29:25;13.90;99.90
18934;DHT22;9599;53.706;10.384;2023-08-30T00:31:53;13.90;99.90
18934;DHT22;9599;53.706;10.384;2023-08-30T00:34:21;13.90;99.90
18934;DHT22;9599;53.706;10.384;2023-08-30T00:36:49;13.90;99.90
18934;DHT22;9599;53.706;10.384;2023-08-30T00:39:17;13.90;99.90
18934;DHT22;9599;53.706;10.384;2023-08-30T00:41:45;13.90;99.90
18934;DHT22;9599;53.706;10.384;2023-08-30T00:44:15;13.80;99.90
18934;DHT22;9599;53.706;10.384;2023-08-30T00:46:43;13.80;99.90
18934;DHT22;9599;53.706;10.384;2023-08-30T00:49:11;13.80;99.90
18934;DHT22;9599;53.706;10.384;2023-08-30T00:51:39;13.70;99.90
18934;DHT22;9599;53.706;10.384;2023-08-30T00:54:08;13.80;99.90
18934;DHT22;9599;53.706;10.384;2023-08-30T00:56:36;13.70;99.90
18934;DHT22;9599;53.706;10.384;2023-08-30T00:59:04;13.70;99.90
18934;DHT22;9599;53.706;10.384;2023-08-30T01:01:33;13.70;99.90
18934;DHT22;9599;53.706;10.384;2023-08-30T01:04:02;13.70;99.90
18934;DHT22;9599;53.706;10.384;2023-08-30T01:06:31;13.70;99.90
18934;DHT22;9599;53.706;10.384;2023-08-30T01:09:02;13.60;99.90
18934;DHT22;9599;53.706;10.384;2023-08-30T01:11:36;13.60;99.90
18934;DHT22;9599;53.706;10.384;2023-08-30T01:14:08;13.50;99.90
18934;DHT22;9599;53.706;10.384;2023-08-30T01:16:38;13.40;99.90
18934;DHT22;9599;53.706;10.384;2023-08-30T01:19:22;13.40;99.90
18934;DHT22;9599;53.706;10.384;2023-08-30T01:21:58;13.30;99.90
18934;DHT22;9599;53.706;10.384;2023-08-30T01:24:36;13.30;99.90
18934;DHT22;9599;53.706;10.384;2023-08-30T01:27:10;13.30;99.90
18934;DHT22;9599;53.706;10.384;2023-08-30T01:29:42;13.20;99.90
18934;DHT22;9599;53.706;10.384;2023-08-30T01:32:11;13.20;99.90
18934;DHT22;9599;53.706;10.384;2023-08-30T01:34:41;13.10;99.90
18934;DHT22;9599;53.706;10.384;2023-08-30T01:37:10;13.10;99.90
18934;DHT22;9599;53.706;10.384;2023-08-30T01:39:41;13.00;99.90
18934;DHT22;9599;53.706;10.384;2023-08-30T01:42:11;13.00;99.90
18934;DHT22;9599;53.706;10.384;2023-08-30T01:44:42;13.00;99.90
18934;DHT22;9599;53.706;10.384;2023-08-30T01:47:11;13.00;99.90
18934;DHT22;9599;53.706;10.384;2023-08-30T01:49:40;12.90;99.90
18934;DHT22;9599;53.706;10.384;2023-08-30T01:52:09;12.90;99.90
18934;DHT22;9599;53.706;10.384;2023-08-30T01:54:39;12.80;99.90
18934;DHT22;9599;53.706;10.384;2023-08-30T01:57:07;12.80;99.90
18934;DHT22;9599;53.706;10.384;2023-08-30T01:59:37;12.80;99.90
18934;DHT22;9599;53.706;10.384;2023-08-30T02:02:06;12.70;99.90
18934;DHT22;9599;53.706;10.384;2023-08-30T02:04:34;12.70;99.90
18934;DHT22;9599;53.706;10.384;2023-08-30T02:07:03;12.70;99.90
18934;DHT22;9599;53.706;10.384;2023-08-30T02:09:38;12.70;99.90
18934;DHT22;9599;53.706;10.384;2023-08-30T02:12:13;12.70;99.90
18934;DHT22;9599;53.706;10.384;2023-08-30T02:14:48;12.60;99.90
18934;DHT22;9599;53.706;10.384;2023-08-30T02:17:18;12.60;99.90
18934;DHT22;9599;53.706;10.384;2023-08-30T02:19:47;12.50;99.90
18934;DHT22;9599;53.706;10.384;2023-08-30T02:22:18;12.50;99.90
18934;DHT22;9599;53.706;10.384;2023-08-30T02:24:46;12.50;99.90
18934;DHT22;9599;53.706;10.384;2023-08-30T02:27:14;12.50;99.90
18934;DHT22;9599;53.706;10.384;2023-08-30T02:29:42;12.50;99.90
18934;DHT22;9599;53.706;10.384;2023-08-30T02:32:11;12.50;99.90
18934;DHT22;9599;53.706;10.384;2023-08-30T02:34:41;12.50;99.90
18934;DHT22;9599;53.706;10.384;2023-08-30T02:37:09;12.50;99.90
18934;DHT22;9599;53.706;10.384;2023-08-30T02:39:37;12.50;99.90
18934;DHT22;9599;53.706;10.384;2023-08-30T02:42:06;12.50;99.90
18934;DHT22;9599;53.706;10.384;2023-08-30T02:44:34;12.50;99.90
18934;DHT22;9599;53.706;10.384;2023-08-30T02:47:03;12.50;99.90
18934;DHT22;9599;53.706;10.384;2023-08-30T02:49:34;12.60;99.90
18934;DHT22;9599;53.706;10.384;2023-08-30T02:52:02;12.60;99.90
18934;DHT22;9599;53.706;10.384;2023-08-30T02:54:30;12.60;99.90
18934;DHT22;9599;53.706;10.384;2023-08-30T02:57:00;12.60;99.90
18934;DHT22;9599;53.706;10.384;2023-08-30T02:59:27;12.50;99.90
18934;DHT22;9599;53.706;10.384;2023-08-30T03:02:02;12.50;99.90
18934;DHT22;9599;53.706;10.384;2023-08-30T03:04:30;12.50;99.90
18934;DHT22;9599;53.706;10.384;2023-08-30T03:06:59;12.60;99.90
18934;DHT22;9599;53.706;10.384;2023-08-30T03:09:28;12.60;99.90
18934;DHT22;9599;53.706;10.384;2023-08-30T03:11:56;12.50;99.90
18934;DHT22;9599;53.706;10.384;2023-08-30T03:14:25;12.60;99.90
18934;DHT22;9599;53.706;10.384;2023-08-30T03:16:52;12.70;99.90
18934;DHT22;9599;53.706;10.384;2023-08-30T03:19:20;12.70;99.90
18934;DHT22;9599;53.706;10.384;2023-08-30T03:21:48;12.70;99.90
18934;DHT22;9599;53.706;10.384;2023-08-30T03:24:17;12.70;99.90
18934;DHT22;9599;53.706;10.384;2023-08-30T03:26:45;12.80;99.90
18934;DHT22;9599;53.706;10.384;2023-08-30T03:29:13;12.80;99.90
18934;DHT22;9599;53.706;10.384;2023-08-30T03:31:41;12.80;99.90
18934;DHT22;9599;53.706;10.384;2023-08-30T03:34:11;12.80;99.90
18934;DHT22;9599;53.706;10.384;2023-08-30T03:36:40;12.80;99.90
18934;DHT22;9599;53.706;10.384;2023-08-30T03:39:09;12.80;99.90
18934;DHT22;9599;53.706;10.384;2023-08-30T03:41:40;12.80;99.90
18934;DHT22;9599;53.706;10.384;2023-08-30T03:44:08;12.80;99.90
18934;DHT22;9599;53.706;10.384;2023-08-30T03:46:36;12.70;99.90
18934;DHT22;9599;53.706;10.384;2023-08-30T03:49:04;12.70;99.90
18934;DHT22;9599;53.706;10.384;2023-08-30T03:51:32;12.70;99.90
18934;DHT22;9599;53.706;10.384;2023-08-30T03:54:00;12.60;99.90
18934;DHT22;9599;53.706;10.384;2023-08-30T03:56:29;12.60;99.90
18934;DHT22;9599;53.706;10.384;2023-08-30T03:58:59;12.50;99.90
18934;DHT22;9599;53.706;10.384;2023-08-30T04:01:27;12.50;99.90
18934;DHT22;9599;53.706;10.384;2023-08-30T04:03:55;12.50;99.90
18934;DHT22;9599;53.706;10.384;2023-08-30T04:06:23;12.50;99.90
18934;DHT22;9599;53.706;10.384;2023-08-30T04:08:51;12.50;99.90
18934;DHT22;9599;53.706;10.384;2023-08-30T04:11:19;12.40;99.90
18934;DHT22;9599;53.706;10.384;2023-08-30T04:13:47;12.50;99.90
18934;DHT22;9599;53.706;10.384;2023-08-30T04:16:16;12.40;99.90
18934;DHT22;9599;53.706;10.384;2023-08-30T04:18:44;12.40;99.90
18934;DHT22;9599;53.706;10.384;2023-08-30T04:21:13;12.40;99.90
18934;DHT22;9599;53.706;10.384;2023-08-30T04:23:41;12.30;99.90
18934;DHT22;9599;53.706;10.384;2023-08-30T04:26:08;12.40;99.90
18934;DHT22;9599;53.706;10.384;2023-08-30T04:28:36;12.40;99.90
18934;DHT22;9599;53.706;10.384;2023-08-30T04:31:04;12.40;99.90
18934;DHT22;9599;53.706;10.384;2023-08-30T04:33:34;12.50;99.90
18934;DHT22;9599;53.706;10.384;2023-08-30T04:36:03;12.60;99.90
18934;DHT22;9599;53.706;10.384;2023-08-30T04:38:32;12.60;99.90
18934;DHT22;9599;53.706;10.384;2023-08-30T04:41:05;12.60;99.90
18934;DHT22;9599;53.706;10.384;2023-08-30T04:43:35;12.70;99.90
18934;DHT22;9599;53.706;10.384;2023-08-30T04:46:03;12.70;99.90
18934;DHT22;9599;53.706;10.384;2023-08-30T04:48:31;12.80;99.90
18934;DHT22;9599;53.706;10.384;2023-08-30T04:51:01;12.90;99.90
18934;DHT22;9599;53.706;10.384;2023-08-30T04:53:29;12.90;99.90
18934;DHT22;9599;53.706;10.384;2023-08-30T04:55:58;13.00;99.90
18934;DHT22;9599;53.706;10.384;2023-08-30T04:58:28;13.00;99.90
18934;DHT22;9599;53.706;10.384;2023-08-30T05:00:58;13.10;99.90
18934;DHT22;9599;53.706;10.384;2023-08-30T05:03:27;13.10;99.90
18934;DHT22;9599;53.706;10.384;2023-08-30T05:06:00;13.20;99.90
18934;DHT22;9599;53.706;10.384;2023-08-30T05:08:28;13.20;99.90
18934;DHT22;9599;53.706;10.384;2023-08-30T05:10:56;13.30;99.90
18934;DHT22;9599;53.706;10.384;2023-08-30T05:13:25;13.40;99.90
18934;DHT22;9599;53.706;10.384;2023-08-30T05:15:53;13.50;99.90
18934;DHT22;9599;53.706;10.384;2023-08-30T05:18:21;13.50;99.90
18934;DHT22;9599;53.706;10.384;2023-08-30T05:20:49;13.60;99.90
18934;DHT22;9599;53.706;10.384;2023-08-30T05:23:18;13.70;99.90
18934;DHT22;9599;53.706;10.384;2023-08-30T05:25:46;13.70;99.90
18934;DHT22;9599;53.706;10.384;2023-08-30T05:28:16;13.80;99.90
18934;DHT22;9599;53.706;10.384;2023-08-30T05:30:44;14.00;99.90
18934;DHT22;9599;53.706;10.384;2023-08-30T05:33:25;14.10;99.90
18934;DHT22;9599;53.706;10.384;2023-08-30T05:36:11;14.20;99.90
18934;DHT22;9599;53.706;10.384;2023-08-30T05:39:07;14.30;99.90
18934;DHT22;9599;53.706;10.384;2023-08-30T05:41:41;14.40;99.90
18934;DHT22;9599;53.706;10.384;2023-08-30T05:44:08;14.50;99.90
18934;DHT22;9599;53.706;10.384;2023-08-30T05:46:37;14.60;99.90
18934;DHT22;9599;53.706;10.384;2023-08-30T05:49:05;14.70;99.90
18934;DHT22;9599;53.706;10.384;2023-08-30T05:51:33;14.80;99.90
18934;DHT22;9599;53.706;10.384;2023-08-30T05:54:01;15.00;99.90
18934;DHT22;9599;53.706;10.384;2023-08-30T05:56:30;15.00;99.90
18934;DHT22;9599;53.706;10.384;2023-08-30T05:58:59;15.10;99.90
18934;DHT22;9599;53.706;10.384;2023-08-30T06:01:27;15.30;99.90
18934;DHT22;9599;53.706;10.384;2023-08-30T06:03:55;15.50;99.90
18934;DHT22;9599;53.706;10.384;2023-08-30T06:06:23;15.70;99.90
18934;DHT22;9599;53.706;10.384;2023-08-30T06:08:51;15.70;99.90
18934;DHT22;9599;53.706;10.384;2023-08-30T06:11:19;15.90;99.90
18934;DHT22;9599;53.706;10.384;2023-08-30T06:13:48;16.00;99.90
18934;DHT22;9599;53.706;10.384;2023-08-30T06:16:16;16.30;99.90
18934;DHT22;9599;53.706;10.384;2023-08-30T06:18:44;16.30;99.90
18934;DHT22;9599;53.706;10.384;2023-08-30T06:21:12;16.40;99.90
18934;DHT22;9599;53.706;10.384;2023-08-30T06:23:40;16.40;99.90
18934;DHT22;9599;53.706;10.384;2023-08-30T06:26:08;16.40;99.90
18934;DHT22;9599;53.706;10.384;2023-08-30T06:28:36;16.50;99.90
18934;DHT22;9599;53.706;10.384;2023-08-30T06:31:06;16.60;99.90
18934;DHT22;9599;53.706;10.384;2023-08-30T06:33:34;16.70;99.90
18934;DHT22;9599;53.706;10.384;2023-08-30T06:36:03;16.90;99.90
18934;DHT22;9599;53.706;10.384;2023-08-30T06:38:31;17.10;99.90
18934;DHT22;9599;53.706;10.384;2023-08-30T06:40:59;17.40;99.90
18934;DHT22;9599;53.706;10.384;2023-08-30T06:43:27;17.70;99.90
18934;DHT22;9599;53.706;10.384;2023-08-30T06:45:57;18.00;99.90
18934;DHT22;9599;53.706;10.384;2023-08-30T06:48:26;18.10;99.90
18934;DHT22;9599;53.706;10.384;2023-08-30T06:50:57;18.30;99.90
18934;DHT22;9599;53.706;10.384;2023-08-30T06:53:25;18.50;99.90
18934;DHT22;9599;53.706;10.384;2023-08-30T06:55:57;18.60;99.90
18934;DHT22;9599;53.706;10.384;2023-08-30T06:58:27;18.70;99.90
18934;DHT22;9599;53.706;10.384;2023-08-30T07:00:57;18.70;99.90
18934;DHT22;9599;53.706;10.384;2023-08-30T07:03:26;18.70;99.90
18934;DHT22;9599;53.706;10.384;2023-08-30T07:05:55;18.70;99.90
18934;DHT22;9599;53.706;10.384;2023-08-30T07:08:23;18.70;99.90
18934;DHT22;9599;53.706;10.384;2023-08-30T07:10:51;18.90;99.90
18934;DHT22;9599;53.706;10.384;2023-08-30T07:13:19;19.00;99.90
18934;DHT22;9599;53.706;10.384;2023-08-30T07:15:47;19.00;99.90
18934;DHT22;9599;53.706;10.384;2023-08-30T07:18:15;19.10;99.90
18934;DHT22;9599;53.706;10.384;2023-08-30T07:20:45;19.10;99.90
18934;DHT22;9599;53.706;10.384;2023-08-30T07:23:12;19.10;99.90
18934;DHT22;9599;53.706;10.384;2023-08-30T07:25:40;19.10;99.90
18934;DHT22;9599;53.706;10.384;2023-08-30T07:28:08;19.10;99.90
18934;DHT22;9599;53.706;10.384;2023-08-30T07:30:37;19.10;99.90
18934;DHT22;9599;53.706;10.384;2023-08-30T07:33:05;19.10;99.90
18934;DHT22;9599;53.706;10.384;2023-08-30T07:35:33;19.30;99.90
18934;DHT22;9599;53.706;10.384;2023-08-30T07:38:03;19.40;99.90
18934;DHT22;9599;53.706;10.384;2023-08-30T07:40:31;19.60;99.90
18934;DHT22;9599;53.706;10.384;2023-08-30T07:42:58;19.80;99.90
18934;DHT22;9599;53.706;10.384;2023-08-30T07:45:26;19.70;99.90
18934;DHT22;9599;53.706;10.384;2023-08-30T07:47:55;19.70;99.90
18934;DHT22;9599;53.706;10.384;2023-08-30T07:50:23;19.90;99.90
18934;DHT22;9599;53.706;10.384;2023-08-30T07:52:51;19.90;99.90
18934;DHT22;9599;53.706;10.384;2023-08-30T07:55:20;19.90;99.90
18934;DHT22;9599;53.706;10.384;2023-08-30T07:57:48;19.90;99.90
18934;DHT22;9599;53.706;10.384;2023-08-30T08:00:16;20.00;99.90
18934;DHT22;9599;53.706;10.384;2023-08-30T08:02:44;20.10;99.90
18934;DHT22;9599;53.706;10.384;2023-08-30T08:05:12;20.20;99.90
18934;DHT22;9599;53.706;10.384;2023-08-30T08:07:42;20.40;99.90
18934;DHT22;9599;53.706;10.384;2023-08-30T08:10:10;20.60;99.90
18934;DHT22;9599;53.706;10.384;2023-08-30T08:12:39;20.60;99.90
18934;DHT22;9599;53.706;10.384;2023-08-30T08:15:08;20.70;99.90
18934;DHT22;9599;53.706;10.384;2023-08-30T08:17:36;20.80;99.90
18934;DHT22;9599;53.706;10.384;2023-08-30T08:20:05;20.80;99.90
18934;DHT22;9599;53.706;10.384;2023-08-30T08:22:33;20.90;99.90
18934;DHT22;9599;53.706;10.384;2023-08-30T08:25:01;21.20;99.90
18934;DHT22;9599;53.706;10.384;2023-08-30T08:27:30;21.30;99.90
18934;DHT22;9599;53.706;10.384;2023-08-30T08:29:59;21.30;99.90
18934;DHT22;9599;53.706;10.384;2023-08-30T08:32:27;21.30;99.90
18934;DHT22;9599;53.706;10.384;2023-08-30T08:34:55;21.50;99.90
18934;DHT22;9599;53.706;10.384;2023-08-30T08:37:23;21.90;99.90
18934;DHT22;9599;53.706;10.384;2023-08-30T08:39:51;22.10;99.90
18934;DHT22;9599;53.706;10.384;2023-08-30T08:42:19;22.20;99.90
18934;DHT22;9599;53.706;10.384;2023-08-30T08:44:50;22.10;99.90
18934;DHT22;9599;53.706;10.384;2023-08-30T08:47:21;21.90;99.90
18934;DHT22;9599;53.706;10.384;2023-08-30T08:49:49;21.80;99.90
18934;DHT22;9599;53.706;10.384;2023-08-30T08:52:18;21.70;99.90
18934;DHT22;9599;53.706;10.384;2023-08-30T08:54:58;21.60;99.90
18934;DHT22;9599;53.706;10.384;2023-08-30T08:57:28;21.50;99.90
18934;DHT22;9599;53.706;10.384;2023-08-30T08:59:58;21.60;99.90
18934;DHT22;9599;53.706;10.384;2023-08-30T09:02:27;21.50;99.90
18934;DHT22;9599;53.706;10.384;2023-08-30T09:04:58;21.60;99.90
18934;DHT22;9599;53.706;10.384;2023-08-30T09:07:27;21.60;99.90
18934;DHT22;9599;53.706;10.384;2023-08-30T09:09:57;21.50;99.90
18934;DHT22;9599;53.706;10.384;2023-08-30T09:12:25;21.40;99.90
18934;DHT22;9599;53.706;10.384;2023-08-30T09:14:53;21.30;99.90
18934;DHT22;9599;53.706;10.384;2023-08-30T09:17:22;21.30;99.90
18934;DHT22;9599;53.706;10.384;2023-08-30T09:19:51;21.10;99.90
18934;DHT22;9599;53.706;10.384;2023-08-30T09:22:19;21.10;99.90
18934;DHT22;9599;53.706;10.384;2023-08-30T09:24:47;21.30;99.90
18934;DHT22;9599;53.706;10.384;2023-08-30T09:27:15;21.50;99.90
18934;DHT22;9599;53.706;10.384;2023-08-30T09:29:44;21.50;99.90
18934;DHT22;9599;53.706;10.384;2023-08-30T09:32:13;21.50;99.90
18934;DHT22;9599;53.706;10.384;2023-08-30T09:34:45;21.60;99.90
18934;DHT22;9599;53.706;10.384;2023-08-30T09:37:21;21.60;99.90
18934;DHT22;9599;53.706;10.384;2023-08-30T09:39:49;21.50;99.90
18934;DHT22;9599;53.706;10.384;2023-08-30T09:42:17;21.40;99.90
18934;DHT22;9599;53.706;10.384;2023-08-30T09:44:45;21.40;99.90
18934;DHT22;9599;53.706;10.384;2023-08-30T09:47:14;21.40;99.90
18934;DHT22;9599;53.706;10.384;2023-08-30T09:49:44;21.40;99.90
18934;DHT22;9599;53.706;10.384;2023-08-30T09:52:14;21.30;99.90
18934;DHT22;9599;53.706;10.384;2023-08-30T09:54:44;21.10;99.90
18934;DHT22;9599;53.706;10.384;2023-08-30T09:57:13;21.10;99.90
18934;DHT22;9599;53.706;10.384;2023-08-30T09:59:44;21.20;99.90
18934;DHT22;9599;53.706;10.384;2023-08-30T10:02:12;21.40;99.90
18934;DHT22;9599;53.706;10.384;2023-08-30T10:04:40;21.50;99.90
18934;DHT22;9599;53.706;10.384;2023-08-30T10:07:09;21.50;99.90
18934;DHT22;9599;53.706;10.384;2023-08-30T10:09:38;21.50;99.90
18934;DHT22;9599;53.706;10.384;2023-08-30T10:12:23;21.50;99.90
18934;DHT22;9599;53.706;10.384;2023-08-30T10:14:52;21.40;99.90
18934;DHT22;9599;53.706;10.384;2023-08-30T10:17:22;21.30;99.90
18934;DHT22;9599;53.706;10.384;2023-08-30T10:19:50;21.40;99.90
18934;DHT22;9599;53.706;10.384;2023-08-30T10:22:21;21.50;99.90
18934;DHT22;9599;53.706;10.384;2023-08-30T10:24:54;21.40;99.90
18934;DHT22;9599;53.706;10.384;2023-08-30T10:27:30;21.50;99.90
18934;DHT22;9599;53.706;10.384;2023-08-30T10:30:00;21.60;99.90
18934;DHT22;9599;53.706;10.384;2023-08-30T10:32:29;21.70;99.90
18934;DHT22;9599;53.706;10.384;2023-08-30T10:35:01;21.70;99.90
18934;DHT22;9599;53.706;10.384;2023-08-30T10:37:30;21.80;99.90
18934;DHT22;9599;53.706;10.384;2023-08-30T10:40:01;21.60;99.90
18934;DHT22;9599;53.706;10.384;2023-08-30T10:42:32;21.60;99.90
18934;DHT22;9599;53.706;10.384;2023-08-30T10:45:01;21.70;99.90
18934;DHT22;9599;53.706;10.384;2023-08-30T10:47:36;21.90;99.90
18934;DHT22;9599;53.706;10.384;2023-08-30T10:50:06;21.80;99.90
18934;DHT22;9599;53.706;10.384;2023-08-30T10:52:35;21.70;99.90
18934;DHT22;9599;53.706;10.384;2023-08-30T10:55:06;21.50;99.90
18934;DHT22;9599;53.706;10.384;2023-08-30T10:57:37;21.50;99.90
18934;DHT22;9599;53.706;10.384;2023-08-30T11:00:09;21.50;99.90
18934;DHT22;9599;53.706;10.384;2023-08-30T11:02:38;21.40;99.90
18934;DHT22;9599;53.706;10.384;2023-08-30T11:05:11;21.50;99.90
18934;DHT22;9599;53.706;10.384;2023-08-30T11:07:39;21.60;99.90
18934;DHT22;9599;53.706;10.384;2023-08-30T11:10:08;21.60;99.90
18934;DHT22;9599;53.706;10.384;2023-08-30T11:12:40;21.50;99.90
18934;DHT22;9599;53.706;10.384;2023-08-30T11:15:10;21.50;99.90
18934;DHT22;9599;53.706;10.384;2023-08-30T11:17:39;21.40;99.90
18934;DHT22;9599;53.706;10.384;2023-08-30T11:20:08;21.40;99.90
18934;DHT22;9599;53.706;10.384;2023-08-30T11:22:37;21.30;99.90
18934;DHT22;9599;53.706;10.384;2023-08-30T11:25:07;21.30;99.90
18934;DHT22;9599;53.706;10.384;2023-08-30T11:27:35;21.30;99.90
18934;DHT22;9599;53.706;10.384;2023-08-30T11:30:06;21.20;99.90
18934;DHT22;9599;53.706;10.384;2023-08-30T11:32:35;21.10;99.90
18934;DHT22;9599;53.706;10.384;2023-08-30T11:35:05;21.20;99.90
18934;DHT22;9599;53.706;10.384;2023-08-30T11:37:35;21.10;99.90
18934;DHT22;9599;53.706;10.384;2023-08-30T11:40:04;21.10;99.90
18934;DHT22;9599;53.706;10.384;2023-08-30T11:42:33;21.10;99.90
18934;DHT22;9599;53.706;10.384;2023-08-30T11:45:01;21.10;99.90
18934;DHT22;9599;53.706;10.384;2023-08-30T11:47:32;21.30;99.90
18934;DHT22;9599;53.706;10.384;2023-08-30T11:50:01;21.50;99.90
18934;DHT22;9599;53.706;10.384;2023-08-30T11:52:30;21.70;99.90
18934;DHT22;9599;53.706;10.384;2023-08-30T11:55:00;21.80;99.90
18934;DHT22;9599;53.706;10.384;2023-08-30T11:57:33;22.00;99.90
18934;DHT22;9599;53.706;10.384;2023-08-30T12:00:08;22.20;99.90
18934;DHT22;9599;53.706;10.384;2023-08-30T12:02:39;22.00;99.90
18934;DHT22;9599;53.706;10.384;2023-08-30T12:05:10;21.80;99.90
18934;DHT22;9599;53.706;10.384;2023-08-30T12:07:39;21.70;99.90
18934;DHT22;9599;53.706;10.384;2023-08-30T12:10:08;21.60;99.90
18934;DHT22;9599;53.706;10.384;2023-08-30T12:12:37;21.40;99.90
18934;DHT22;9599;53.706;10.384;2023-08-30T12:15:08;21.40;99.90
18934;DHT22;9599;53.706;10.384;2023-08-30T12:17:37;21.30;99.90
18934;DHT22;9599;53.706;10.384;2023-08-30T12:20:14;21.30;99.90
18934;DHT22;9599;53.706;10.384;2023-08-30T12:22:42;21.50;99.90
18934;DHT22;9599;53.706;10.384;2023-08-30T12:25:17;21.50;99.90
18934;DHT22;9599;53.706;10.384;2023-08-30T12:27:46;21.50;99.90
18934;DHT22;9599;53.706;10.384;2023-08-30T12:30:14;21.60;99.90
18934;DHT22;9599;53.706;10.384;2023-08-30T12:32:43;21.90;99.90
18934;DHT22;9599;53.706;10.384;2023-08-30T12:35:13;22.30;99.90
18934;DHT22;9599;53.706;10.384;2023-08-30T12:37:41;22.30;99.90
18934;DHT22;9599;53.706;10.384;2023-08-30T12:40:10;22.40;99.90
18934;DHT22;9599;53.706;10.384;2023-08-30T12:42:38;22.40;99.90
18934;DHT22;9599;53.706;10.384;2023-08-30T12:45:06;22.40;99.90
18934;DHT22;9599;53.706;10.384;2023-08-30T12:47:35;22.50;99.90
18934;DHT22;9599;53.706;10.384;2023-08-30T12:50:03;22.50;99.90
18934;DHT22;9599;53.706;10.384;2023-08-30T12:52:33;22.50;99.90
18934;DHT22;9599;53.706;10.384;2023-08-30T12:55:01;22.50;99.90
18934;DHT22;9599;53.706;10.384;2023-08-30T12:57:29;22.50;99.90
18934;DHT22;9599;53.706;10.384;2023-08-30T12:59:57;22.70;99.90
18934;DHT22;9599;53.706;10.384;2023-08-30T13:02:25;22.80;99.90
18934;DHT22;9599;53.706;10.384;2023-08-30T13:04:53;22.60;99.90
18934;DHT22;9599;53.706;10.384;2023-08-30T13:07:21;22.50;99.90
18934;DHT22;9599;53.706;10.384;2023-08-30T13:09:50;22.50;99.90
18934;DHT22;9599;53.706;10.384;2023-08-30T13:12:18;22.30;99.90
18934;DHT22;9599;53.706;10.384;2023-08-30T13:14:46;22.40;99.90
18934;DHT22;9599;53.706;10.384;2023-08-30T13:17:13;22.50;99.90
18934;DHT22;9599;53.706;10.384;2023-08-30T13:19:44;22.50;99.90
18934;DHT22;9599;53.706;10.384;2023-08-30T13:22:12;22.40;99.90
18934;DHT22;9599;53.706;10.384;2023-08-30T13:24:40;22.40;99.90
18934;DHT22;9599;53.706;10.384;2023-08-30T13:27:09;22.30;99.90
18934;DHT22;9599;53.706;10.384;2023-08-30T13:29:37;22.30;99.90
18934;DHT22;9599;53.706;10.384;2023-08-30T13:32:05;22.30;99.90
18934;DHT22;9599;53.706;10.384;2023-08-30T13:34:33;22.20;99.90
18934;DHT22;9599;53.706;10.384;2023-08-30T13:37:01;22.20;99.90
18934;DHT22;9599;53.706;10.384;2023-08-30T13:39:31;22.10;99.90
18934;DHT22;9599;53.706;10.384;2023-08-30T13:41:59;22.20;99.90
18934;DHT22;9599;53.706;10.384;2023-08-30T13:44:28;22.20;99.90
18934;DHT22;9599;53.706;10.384;2023-08-30T13:46:56;22.10;99.90
18934;DHT22;9599;53.706;10.384;2023-08-30T13:49:24;22.20;99.90
18934;DHT22;9599;53.706;10.384;2023-08-30T13:51:53;22.20;99.90
18934;DHT22;9599;53.706;10.384;2023-08-30T13:54:21;22.20;99.90
18934;DHT22;9599;53.706;10.384;2023-08-30T13:56:49;22.40;99.90
18934;DHT22;9599;53.706;10.384;2023-08-30T13:59:17;22.50;99.90
18934;DHT22;9599;53.706;10.384;2023-08-30T14:01:46;22.40;99.90
18934;DHT22;9599;53.706;10.384;2023-08-30T14:04:14;22.10;99.90
18934;DHT22;9599;53.706;10.384;2023-08-30T14:06:42;22.10;99.90
18934;DHT22;9599;53.706;10.384;2023-08-30T14:09:10;22.20;99.90
18934;DHT22;9599;53.706;10.384;2023-08-30T14:11:37;22.20;99.90
18934;DHT22;9599;53.706;10.384;2023-08-30T14:14:07;21.90;99.90
18934;DHT22;9599;53.706;10.384;2023-08-30T14:16:35;21.90;99.90
18934;DHT22;9599;53.706;10.384;2023-08-30T14:19:05;22.00;99.90
18934;DHT22;9599;53.706;10.384;2023-08-30T14:21:33;22.00;99.90
18934;DHT22;9599;53.706;10.384;2023-08-30T14:24:01;22.00;99.90
18934;DHT22;9599;53.706;10.384;2023-08-30T14:26:30;22.00;99.90
18934;DHT22;9599;53.706;10.384;2023-08-30T14:28:58;22.10;99.90
18934;DHT22;9599;53.706;10.384;2023-08-30T14:31:26;22.00;99.90
18934;DHT22;9599;53.706;10.384;2023-08-30T14:33:55;22.00;99.90
18934;DHT22;9599;53.706;10.384;2023-08-30T14:36:25;22.20;99.90
18934;DHT22;9599;53.706;10.384;2023-08-30T14:38:53;22.30;99.90
18934;DHT22;9599;53.706;10.384;2023-08-30T14:41:21;22.40;99.90
18934;DHT22;9599;53.706;10.384;2023-08-30T14:43:49;22.50;99.90
18934;DHT22;9599;53.706;10.384;2023-08-30T14:46:17;22.50;99.90
18934;DHT22;9599;53.706;10.384;2023-08-30T14:48:50;22.40;99.90
18934;DHT22;9599;53.706;10.384;2023-08-30T14:51:18;22.40;99.90
18934;DHT22;9599;53.706;10.384;2023-08-30T14:53:47;22.60;99.90
18934;DHT22;9599;53.706;10.384;2023-08-30T14:56:15;22.60;99.90
18934;DHT22;9599;53.706;10.384;2023-08-30T14:58:44;22.60;99.90
18934;DHT22;9599;53.706;10.384;2023-08-30T15:01:16;22.60;99.90
18934;DHT22;9599;53.706;10.384;2023-08-30T15:03:43;22.40;99.90
18934;DHT22;9599;53.706;10.384;2023-08-30T15:06:12;22.40;99.90
18934;DHT22;9599;53.706;10.384;2023-08-30T15:08:40;22.40;99.90
18934;DHT22;9599;53.706;10.384;2023-08-30T15:11:10;22.30;99.90
18934;DHT22;9599;53.706;10.384;2023-08-30T15:13:38;22.10;99.90
18934;DHT22;9599;53.706;10.384;2023-08-30T15:16:06;22.10;99.90
18934;DHT22;9599;53.706;10.384;2023-08-30T15:18:34;22.00;99.90
18934;DHT22;9599;53.706;10.384;2023-08-30T15:21:02;22.00;99.90
18934;DHT22;9599;53.706;10.384;2023-08-30T15:23:31;21.90;99.90
18934;DHT22;9599;53.706;10.384;2023-08-30T15:25:59;21.90;99.90
18934;DHT22;9599;53.706;10.384;2023-08-30T15:28:28;21.80;99.90
18934;DHT22;9599;53.706;10.384;2023-08-30T15:30:56;21.70;99.90
18934;DHT22;9599;53.706;10.384;2023-08-30T15:33:24;21.50;99.90
18934;DHT22;9599;53.706;10.384;2023-08-30T15:35:57;21.40;99.90
18934;DHT22;9599;53.706;10.384;2023-08-30T15:38:25;21.30;99.90
18934;DHT22;9599;53.706;10.384;2023-08-30T15:40:53;21.30;99.90
18934;DHT22;9599;53.706;10.384;2023-08-30T15:43:22;21.30;99.90